sensor_id;sensor_type;location;lat;lon;timestamp;pressure;altitude;pressure_sealevel;temperature;humidity
59435;BME280;45241;49.768;8.636;2023-03-14T00:00:08;98337.47;;;12.91;97.35
59435;BME280;45241;49.768;8.636;2023-03-14T00:02:36;98346.34;;;12.92;97.10
59435;BME280;45241;49.768;8.636;2023-03-14T00:05:01;98342.59;;;12.93;96.82
59435;BME280;45241;49.768;8.636;2023-03-14T00:07:31;98336.25;;;13.04;96.40
59435;BME280;45241;49.768;8.636;2023-03-14T00:09:59;98345.00;;;12.95;96.37
59435;BME280;45241;49.768;8.636;2023-03-14T00:12:24;98344.63;;;12.86;96.88
59435;BME280;45241;49.768;8.636;2023-03-14T00:14:49;98354.06;;;12.88;96.94
59435;BME280;45241;49.768;8.636;2023-03-14T00:17:14;98348.28;;;12.97;96.51
59435;BME280;45241;49.768;8.636;2023-03-14T00:19:40;98348.22;;;12.91;97.20
59435;BME280;45241;49.768;8.636;2023-03-14T00:22:05;98353.25;;;12.88;97.09
59435;BME280;45241;49.768;8.636;2023-03-14T00:24:30;98346.47;;;13.02;96.75
59435;BME280;45241;49.768;8.636;2023-03-14T00:26:55;98342.41;;;13.00;96.59
59435;BME280;45241;49.768;8.636;2023-03-14T00:29:21;98340.78;;;12.99;97.17
59435;BME280;45241;49.768;8.636;2023-03-14T00:31:46;98347.69;;;12.95;97.10
59435;BME280;45241;49.768;8.636;2023-03-14T00:34:11;98337.91;;;12.83;97.21
59435;BME280;45241;49.768;8.636;2023-03-14T00:36:37;98342.31;;;12.95;96.49
59435;BME280;45241;49.768;8.636;2023-03-14T00:39:02;98331.00;;;12.93;96.61
59435;BME280;45241;49.768;8.636;2023-03-14T00:41:27;98330.81;;;12.99;96.23
59435;BME280;45241;49.768;8.636;2023-03-14T00:43:52;98333.78;;;12.98;96.59
59435;BME280;45241;49.768;8.636;2023-03-14T00:46:18;98329.50;;;13.02;95.52
59435;BME280;45241;49.768;8.636;2023-03-14T00:48:46;98323.69;;;13.10;95.29
59435;BME280;45241;49.768;8.636;2023-03-14T00:51:12;98307.28;;;13.11;94.59
59435;BME280;45241;49.768;8.636;2023-03-14T00:53:40;98312.31;;;13.03;95.00
59435;BME280;45241;49.768;8.636;2023-03-14T00:56:08;98296.94;;;12.98;94.86
59435;BME280;45241;49.768;8.636;2023-03-14T00:58:34;98293.72;;;13.01;94.09
59435;BME280;45241;49.768;8.636;2023-03-14T01:01:05;98297.44;;;12.95;94.17
59435;BME280;45241;49.768;8.636;2023-03-14T01:03:30;98291.66;;;12.86;94.44
59435;BME280;45241;49.768;8.636;2023-03-14T01:06:06;98294.75;;;12.95;93.53
59435;BME280;45241;49.768;8.636;2023-03-14T01:08:32;98300.94;;;12.96;93.02
59435;BME280;45241;49.768;8.636;2023-03-14T01:10:57;98307.13;;;12.96;93.17
59435;BME280;45241;49.768;8.636;2023-03-14T01:13:22;98313.31;;;12.97;93.11
59435;BME280;45241;49.768;8.636;2023-03-14T01:15:47;98330.53;;;12.96;92.69
59435;BME280;45241;49.768;8.636;2023-03-14T01:18:13;98323.31;;;13.01;92.40
59435;BME280;45241;49.768;8.636;2023-03-14T01:20:38;98326.56;;;13.03;92.40
59435;BME280;45241;49.768;8.636;2023-03-14T01:23:03;98326.44;;;12.93;92.67
59435;BME280;45241;49.768;8.636;2023-03-14T01:25:29;98311.13;;;12.94;93.40
59435;BME280;45241;49.768;8.636;2023-03-14T01:27:55;98312.31;;;13.03;92.82
59435;BME280;45241;49.768;8.636;2023-03-14T01:30:20;98310.78;;;13.12;91.96
59435;BME280;45241;49.768;8.636;2023-03-14T01:32:45;98313.25;;;12.91;93.00
59435;BME280;45241;49.768;8.636;2023-03-14T01:35:11;98301.50;;;12.98;92.78
59435;BME280;45241;49.768;8.636;2023-03-14T01:37:36;98292.28;;;12.94;93.83
59435;BME280;45241;49.768;8.636;2023-03-14T01:40:02;98300.94;;;12.96;93.10
59435;BME280;45241;49.768;8.636;2023-03-14T01:42:28;98299.91;;;13.02;93.30
59435;BME280;45241;49.768;8.636;2023-03-14T01:44:57;98296.97;;;13.03;93.29
59435;BME280;45241;49.768;8.636;2023-03-14T01:47:23;98282.44;;;13.04;93.52
59435;BME280;45241;49.768;8.636;2023-03-14T01:49:57;98281.06;;;12.97;93.75
59435;BME280;45241;49.768;8.636;2023-03-14T01:52:31;98282.41;;;12.99;94.04
59435;BME280;45241;49.768;8.636;2023-03-14T01:55:16;98285.00;;;12.89;95.22
59435;BME280;45241;49.768;8.636;2023-03-14T01:57:48;98270.16;;;12.86;95.50
59435;BME280;45241;49.768;8.636;2023-03-14T02:00:17;98258.59;;;12.86;96.11
59435;BME280;45241;49.768;8.636;2023-03-14T02:02:46;98247.09;;;12.90;96.37
59435;BME280;45241;49.768;8.636;2023-03-14T02:05:15;98244.50;;;13.01;95.76
59435;BME280;45241;49.768;8.636;2023-03-14T02:07:47;98233.44;;;12.97;96.17
59435;BME280;45241;49.768;8.636;2023-03-14T02:10:14;98232.13;;;13.00;96.09
59435;BME280;45241;49.768;8.636;2023-03-14T02:12:40;98221.56;;;12.93;96.33
59435;BME280;45241;49.768;8.636;2023-03-14T02:15:06;98229.81;;;12.86;96.77
59435;BME280;45241;49.768;8.636;2023-03-14T02:17:31;98225.06;;;12.94;96.90
59435;BME280;45241;49.768;8.636;2023-03-14T02:22:50;98226.19;;;12.98;97.46
59435;BME280;45241;49.768;8.636;2023-03-14T02:25:24;98211.19;;;13.07;97.11
59435;BME280;45241;49.768;8.636;2023-03-14T02:27:54;98222.53;;;12.82;98.64
59435;BME280;45241;49.768;8.636;2023-03-14T02:30:22;98214.31;;;12.94;97.17
59435;BME280;45241;49.768;8.636;2023-03-14T02:32:51;98206.56;;;12.97;97.59
59435;BME280;45241;49.768;8.636;2023-03-14T02:35:20;98212.13;;;12.90;98.01
59435;BME280;45241;49.768;8.636;2023-03-14T02:37:55;98214.09;;;13.00;97.43
59435;BME280;45241;49.768;8.636;2023-03-14T02:40:23;98205.63;;;12.86;97.56
59435;BME280;45241;49.768;8.636;2023-03-14T02:42:48;98213.41;;;12.83;97.77
59435;BME280;45241;49.768;8.636;2023-03-14T02:47:59;98215.94;;;12.95;97.04
59435;BME280;45241;49.768;8.636;2023-03-14T02:50:29;98195.69;;;12.87;97.00
59435;BME280;45241;49.768;8.636;2023-03-14T02:52:56;98192.63;;;12.78;98.25
59435;BME280;45241;49.768;8.636;2023-03-14T02:55:22;98198.38;;;12.87;97.77
59435;BME280;45241;49.768;8.636;2023-03-14T02:57:48;98196.00;;;12.90;97.53
59435;BME280;45241;49.768;8.636;2023-03-14T03:00:13;98189.22;;;12.88;98.00
59435;BME280;45241;49.768;8.636;2023-03-14T03:02:40;98196.00;;;12.90;98.14
59435;BME280;45241;49.768;8.636;2023-03-14T03:05:05;98202.94;;;12.86;98.11
59435;BME280;45241;49.768;8.636;2023-03-14T03:07:30;98197.00;;;12.84;98.12
59435;BME280;45241;49.768;8.636;2023-03-14T03:09:56;98212.88;;;12.86;97.87
59435;BME280;45241;49.768;8.636;2023-03-14T03:12:21;98195.88;;;12.80;97.99
59435;BME280;45241;49.768;8.636;2023-03-14T03:14:46;98182.22;;;12.87;97.86
59435;BME280;45241;49.768;8.636;2023-03-14T03:17:12;98171.44;;;12.82;97.21
59435;BME280;45241;49.768;8.636;2023-03-14T03:19:37;98172.34;;;12.93;96.61
59435;BME280;45241;49.768;8.636;2023-03-14T03:22:02;98171.72;;;12.85;95.60
59435;BME280;45241;49.768;8.636;2023-03-14T03:24:28;98160.34;;;12.73;95.60
59435;BME280;45241;49.768;8.636;2023-03-14T03:26:53;98165.47;;;12.80;94.56
59435;BME280;45241;49.768;8.636;2023-03-14T03:29:19;98168.03;;;12.91;93.89
59435;BME280;45241;49.768;8.636;2023-03-14T03:31:44;98159.97;;;12.91;92.59
59435;BME280;45241;49.768;8.636;2023-03-14T03:34:11;98159.34;;;12.84;92.89
59435;BME280;45241;49.768;8.636;2023-03-14T03:36:36;98136.03;;;12.90;92.28
59435;BME280;45241;49.768;8.636;2023-03-14T03:39:02;98129.03;;;12.89;91.67
59435;BME280;45241;49.768;8.636;2023-03-14T03:41:27;98130.53;;;12.80;91.75
59435;BME280;45241;49.768;8.636;2023-03-14T03:43:53;98139.84;;;12.67;92.09
59435;BME280;45241;49.768;8.636;2023-03-14T03:46:19;98128.91;;;12.79;91.14
59435;BME280;45241;49.768;8.636;2023-03-14T03:48:44;98121.38;;;12.76;89.80
59435;BME280;45241;49.768;8.636;2023-03-14T03:51:14;98124.31;;;12.74;89.80
59435;BME280;45241;49.768;8.636;2023-03-14T03:53:40;98116.78;;;12.76;89.97
59435;BME280;45241;49.768;8.636;2023-03-14T03:56:06;98120.56;;;12.75;89.86
59435;BME280;45241;49.768;8.636;2023-03-14T03:58:31;98104.06;;;12.67;89.45
59435;BME280;45241;49.768;8.636;2023-03-14T04:00:57;98118.59;;;12.66;89.92
59435;BME280;45241;49.768;8.636;2023-03-14T04:03:22;98110.34;;;12.77;89.59
59435;BME280;45241;49.768;8.636;2023-03-14T04:06:07;98120.81;;;12.74;89.68
59435;BME280;45241;49.768;8.636;2023-03-14T04:08:33;98127.03;;;12.79;89.86
59435;BME280;45241;49.768;8.636;2023-03-14T04:11:00;98117.97;;;12.85;89.95
59435;BME280;45241;49.768;8.636;2023-03-14T04:13:26;98123.41;;;12.90;90.02
59435;BME280;45241;49.768;8.636;2023-03-14T04:15:52;98106.50;;;12.68;91.66
59435;BME280;45241;49.768;8.636;2023-03-14T04:18:18;98113.28;;;12.71;91.16
59435;BME280;45241;49.768;8.636;2023-03-14T04:20:43;98113.00;;;12.72;90.90
59435;BME280;45241;49.768;8.636;2023-03-14T04:23:09;98114.09;;;12.71;90.80
59435;BME280;45241;49.768;8.636;2023-03-14T04:25:34;98122.19;;;12.76;90.18
59435;BME280;45241;49.768;8.636;2023-03-14T04:27:59;98117.16;;;12.85;90.20
59435;BME280;45241;49.768;8.636;2023-03-14T04:30:25;98111.94;;;12.73;88.62
59435;BME280;45241;49.768;8.636;2023-03-14T04:32:50;98115.22;;;12.80;88.66
59435;BME280;45241;49.768;8.636;2023-03-14T04:35:15;98117.75;;;12.92;88.64
59435;BME280;45241;49.768;8.636;2023-03-14T04:37:40;98113.00;;;12.72;89.19
59435;BME280;45241;49.768;8.636;2023-03-14T04:40:09;98108.56;;;12.88;88.44
59435;BME280;45241;49.768;8.636;2023-03-14T04:42:34;98102.28;;;12.77;89.43
59435;BME280;45241;49.768;8.636;2023-03-14T04:44:59;98105.53;;;12.79;88.94
59435;BME280;45241;49.768;8.636;2023-03-14T04:47:25;98103.38;;;12.81;89.33
59435;BME280;45241;49.768;8.636;2023-03-14T04:49:50;98098.41;;;12.63;89.56
59435;BME280;45241;49.768;8.636;2023-03-14T04:52:16;98105.69;;;12.68;90.08
59435;BME280;45241;49.768;8.636;2023-03-14T04:54:41;98095.56;;;12.75;89.50
59435;BME280;45241;49.768;8.636;2023-03-14T04:57:06;98096.91;;;12.77;88.48
59435;BME280;45241;49.768;8.636;2023-03-14T04:59:32;98094.94;;;12.68;88.67
59435;BME280;45241;49.768;8.636;2023-03-14T05:01:57;98084.25;;;12.73;89.27
59435;BME280;45241;49.768;8.636;2023-03-14T05:04:22;98077.03;;;12.78;88.86
59435;BME280;45241;49.768;8.636;2023-03-14T05:06:47;98065.75;;;12.81;88.41
59435;BME280;45241;49.768;8.636;2023-03-14T05:09:13;98061.75;;;12.84;88.14
59435;BME280;45241;49.768;8.636;2023-03-14T05:11:40;98058.34;;;12.61;88.39
59435;BME280;45241;49.768;8.636;2023-03-14T05:14:05;98047.69;;;12.72;87.61
59435;BME280;45241;49.768;8.636;2023-03-14T05:16:30;98045.84;;;12.77;87.20
59435;BME280;45241;49.768;8.636;2023-03-14T05:18:56;98046.34;;;12.74;86.63
59435;BME280;45241;49.768;8.636;2023-03-14T05:21:21;98045.00;;;12.72;87.18
59435;BME280;45241;49.768;8.636;2023-03-14T05:23:46;98045.84;;;12.77;87.34
59435;BME280;45241;49.768;8.636;2023-03-14T05:26:12;98054.41;;;12.69;87.62
59435;BME280;45241;49.768;8.636;2023-03-14T05:28:37;98056.50;;;12.67;87.76
59435;BME280;45241;49.768;8.636;2023-03-14T05:31:06;98048.50;;;12.72;87.03
59435;BME280;45241;49.768;8.636;2023-03-14T05:33:31;98047.63;;;12.67;85.82
59435;BME280;45241;49.768;8.636;2023-03-14T05:35:57;98049.22;;;12.62;86.45
59435;BME280;45241;49.768;8.636;2023-03-14T05:38:22;98051.38;;;12.66;86.30
59435;BME280;45241;49.768;8.636;2023-03-14T05:40:47;98042.88;;;12.79;86.53
59435;BME280;45241;49.768;8.636;2023-03-14T05:43:13;98052.72;;;12.63;86.74
59435;BME280;45241;49.768;8.636;2023-03-14T05:45:38;98051.94;;;12.68;86.78
59435;BME280;45241;49.768;8.636;2023-03-14T05:48:04;98050.63;;;12.70;86.19
59435;BME280;45241;49.768;8.636;2023-03-14T05:50:29;98055.19;;;12.70;86.16
59435;BME280;45241;49.768;8.636;2023-03-14T05:52:55;98069.91;;;12.62;86.42
59435;BME280;45241;49.768;8.636;2023-03-14T05:55:20;98056.75;;;12.66;86.98
59435;BME280;45241;49.768;8.636;2023-03-14T05:57:45;98049.75;;;12.59;86.77
59435;BME280;45241;49.768;8.636;2023-03-14T06:00:11;98045.50;;;12.69;86.65
59435;BME280;45241;49.768;8.636;2023-03-14T06:02:36;98051.38;;;12.60;86.62
59435;BME280;45241;49.768;8.636;2023-03-14T06:05:02;98051.66;;;12.64;86.97
59435;BME280;45241;49.768;8.636;2023-03-14T06:07:27;98051.06;;;12.57;85.92
59435;BME280;45241;49.768;8.636;2023-03-14T06:09:52;98051.06;;;12.57;85.88
59435;BME280;45241;49.768;8.636;2023-03-14T06:12:17;98053.25;;;12.60;85.55
59435;BME280;45241;49.768;8.636;2023-03-14T06:14:43;98046.78;;;12.61;85.27
59435;BME280;45241;49.768;8.636;2023-03-14T06:17:08;98044.03;;;12.51;85.56
59435;BME280;45241;49.768;8.636;2023-03-14T06:19:33;98048.69;;;12.66;85.29
59435;BME280;45241;49.768;8.636;2023-03-14T06:21:59;98040.88;;;12.59;85.46
59435;BME280;45241;49.768;8.636;2023-03-14T06:24:24;98046.53;;;12.62;85.37
59435;BME280;45241;49.768;8.636;2023-03-14T06:26:49;98056.13;;;12.53;85.27
59435;BME280;45241;49.768;8.636;2023-03-14T06:29:15;98046.28;;;12.64;85.01
59435;BME280;45241;49.768;8.636;2023-03-14T06:31:40;98059.13;;;12.57;85.41
59435;BME280;45241;49.768;8.636;2023-03-14T06:34:05;98051.38;;;12.60;85.74
59435;BME280;45241;49.768;8.636;2023-03-14T06:36:30;98058.16;;;12.36;87.45
59435;BME280;45241;49.768;8.636;2023-03-14T06:38:56;98053.59;;;12.42;88.79
59435;BME280;45241;49.768;8.636;2023-03-14T06:41:21;98057.06;;;12.37;91.16
59435;BME280;45241;49.768;8.636;2023-03-14T06:43:49;98050.09;;;12.36;90.90
59435;BME280;45241;49.768;8.636;2023-03-14T06:46:14;98057.88;;;12.38;90.80
59435;BME280;45241;49.768;8.636;2023-03-14T06:48:40;98047.03;;;12.27;90.63
59435;BME280;45241;49.768;8.636;2023-03-14T06:51:06;98041.41;;;12.29;90.55
59435;BME280;45241;49.768;8.636;2023-03-14T06:53:31;98034.16;;;12.29;89.88
59435;BME280;45241;49.768;8.636;2023-03-14T06:55:57;98033.16;;;12.36;89.61
59435;BME280;45241;49.768;8.636;2023-03-14T06:58:22;98025.56;;;12.27;90.11
59435;BME280;45241;49.768;8.636;2023-03-14T07:00:47;98030.50;;;12.41;90.24
59435;BME280;45241;49.768;8.636;2023-03-14T07:03:13;98016.75;;;12.32;89.82
59435;BME280;45241;49.768;8.636;2023-03-14T07:05:39;98024.66;;;12.49;89.72
59435;BME280;45241;49.768;8.636;2023-03-14T07:08:06;98030.47;;;12.36;89.57
59435;BME280;45241;49.768;8.636;2023-03-14T07:10:33;98026.16;;;12.35;89.61
59435;BME280;45241;49.768;8.636;2023-03-14T07:12:58;98034.25;;;12.40;88.95
59435;BME280;45241;49.768;8.636;2023-03-14T07:15:23;98031.66;;;12.50;88.06
59435;BME280;45241;49.768;8.636;2023-03-14T07:17:49;98040.88;;;12.59;87.07
59435;BME280;45241;49.768;8.636;2023-03-14T07:20:14;98046.13;;;12.44;87.82
59435;BME280;45241;49.768;8.636;2023-03-14T07:22:39;98044.84;;;12.51;87.14
59435;BME280;45241;49.768;8.636;2023-03-14T07:25:05;98041.03;;;12.47;86.90
59435;BME280;45241;49.768;8.636;2023-03-14T07:27:31;98051.56;;;12.54;85.91
59435;BME280;45241;49.768;8.636;2023-03-14T07:29:56;98055.94;;;12.60;85.64
59435;BME280;45241;49.768;8.636;2023-03-14T07:32:21;98052.72;;;12.63;85.79
59435;BME280;45241;49.768;8.636;2023-03-14T07:34:47;98051.56;;;12.54;85.80
59435;BME280;45241;49.768;8.636;2023-03-14T07:37:12;98054.31;;;12.59;84.91
59435;BME280;45241;49.768;8.636;2023-03-14T07:39:37;98060.22;;;12.61;84.18
59435;BME280;45241;49.768;8.636;2023-03-14T07:42:03;98065.63;;;12.66;83.71
59435;BME280;45241;49.768;8.636;2023-03-14T07:44:28;98051.19;;;12.72;83.58
59435;BME280;45241;49.768;8.636;2023-03-14T07:46:53;98052.50;;;12.70;82.60
59435;BME280;45241;49.768;8.636;2023-03-14T07:49:19;98056.00;;;12.70;82.85
59435;BME280;45241;49.768;8.636;2023-03-14T07:51:47;98060.06;;;12.73;81.80
59435;BME280;45241;49.768;8.636;2023-03-14T07:54:12;98059.34;;;12.87;80.87
59435;BME280;45241;49.768;8.636;2023-03-14T07:56:38;98062.78;;;12.78;80.82
59435;BME280;45241;49.768;8.636;2023-03-14T07:59:03;98073.06;;;12.86;80.63
59435;BME280;45241;49.768;8.636;2023-03-14T08:01:29;98073.31;;;12.84;80.61
59435;BME280;45241;49.768;8.636;2023-03-14T08:03:54;98068.00;;;12.89;80.60
59435;BME280;45241;49.768;8.636;2023-03-14T08:06:19;98081.22;;;12.96;81.02
59435;BME280;45241;49.768;8.636;2023-03-14T08:08:45;98071.69;;;12.83;81.08
59435;BME280;45241;49.768;8.636;2023-03-14T08:11:10;98085.94;;;12.84;80.72
59435;BME280;45241;49.768;8.636;2023-03-14T08:13:36;98073.59;;;12.88;80.82
59435;BME280;45241;49.768;8.636;2023-03-14T08:16:02;98078.16;;;12.82;80.05
59435;BME280;45241;49.768;8.636;2023-03-14T08:18:27;98079.56;;;12.90;80.88
59435;BME280;45241;49.768;8.636;2023-03-14T08:20:53;98089.59;;;13.00;80.64
59435;BME280;45241;49.768;8.636;2023-03-14T08:23:18;98074.72;;;12.92;80.75
59435;BME280;45241;49.768;8.636;2023-03-14T08:25:43;98083.13;;;13.01;79.98
59435;BME280;45241;49.768;8.636;2023-03-14T08:28:08;98074.22;;;12.95;80.94
59435;BME280;45241;49.768;8.636;2023-03-14T08:30:34;98062.34;;;12.91;79.96
59435;BME280;45241;49.768;8.636;2023-03-14T08:32:59;98084.78;;;13.07;80.39
59435;BME280;45241;49.768;8.636;2023-03-14T08:35:26;98076.97;;;13.05;80.32
59435;BME280;45241;49.768;8.636;2023-03-14T08:37:51;98075.41;;;13.09;80.15
59435;BME280;45241;49.768;8.636;2023-03-14T08:40:17;98071.09;;;13.13;79.60
59435;BME280;45241;49.768;8.636;2023-03-14T08:42:45;98077.56;;;13.12;80.06
59435;BME280;45241;49.768;8.636;2023-03-14T08:45:12;98059.59;;;13.23;79.68
59435;BME280;45241;49.768;8.636;2023-03-14T08:47:38;98054.56;;;13.37;79.27
59435;BME280;45241;49.768;8.636;2023-03-14T08:50:05;98062.09;;;13.35;79.85
59435;BME280;45241;49.768;8.636;2023-03-14T08:52:30;98060.16;;;13.30;79.76
59435;BME280;45241;49.768;8.636;2023-03-14T08:54:56;98055.59;;;13.31;81.01
59435;BME280;45241;49.768;8.636;2023-03-14T08:57:22;98064.53;;;13.46;80.06
59435;BME280;45241;49.768;8.636;2023-03-14T08:59:52;98071.78;;;13.41;79.96
59435;BME280;45241;49.768;8.636;2023-03-14T09:02:17;98072.00;;;13.29;79.63
59435;BME280;45241;49.768;8.636;2023-03-14T09:04:42;98063.94;;;13.29;79.18
59435;BME280;45241;49.768;8.636;2023-03-14T09:07:08;98070.13;;;13.30;79.65
59435;BME280;45241;49.768;8.636;2023-03-14T09:09:33;98067.22;;;13.41;80.11
59435;BME280;45241;49.768;8.636;2023-03-14T09:11:58;98073.34;;;13.27;80.28
59435;BME280;45241;49.768;8.636;2023-03-14T09:14:24;98077.38;;;13.29;79.56
59435;BME280;45241;49.768;8.636;2023-03-14T09:16:49;98090.88;;;13.39;79.53
59435;BME280;45241;49.768;8.636;2023-03-14T09:19:15;98076.94;;;13.47;79.50
59435;BME280;45241;49.768;8.636;2023-03-14T09:21:41;98077.97;;;13.41;79.40
59435;BME280;45241;49.768;8.636;2023-03-14T09:24:06;98077.22;;;13.51;79.99
59435;BME280;45241;49.768;8.636;2023-03-14T09:26:32;98074.00;;;13.54;79.76
59435;BME280;45241;49.768;8.636;2023-03-14T09:28:57;98073.78;;;13.61;80.17
59435;BME280;45241;49.768;8.636;2023-03-14T09:31:22;98079.44;;;13.69;80.37
59435;BME280;45241;49.768;8.636;2023-03-14T09:33:48;98064.56;;;13.52;80.24
59435;BME280;45241;49.768;8.636;2023-03-14T09:36:13;98068.28;;;13.40;80.42
59435;BME280;45241;49.768;8.636;2023-03-14T09:38:38;98065.13;;;13.59;80.58
59435;BME280;45241;49.768;8.636;2023-03-14T09:41:22;98059.19;;;13.52;80.53
59435;BME280;45241;49.768;8.636;2023-03-14T09:43:50;98089.03;;;13.45;81.08
59435;BME280;45241;49.768;8.636;2023-03-14T09:46:20;98072.03;;;13.34;81.42
59435;BME280;45241;49.768;8.636;2023-03-14T09:48:46;98086.03;;;13.36;82.32
59435;BME280;45241;49.768;8.636;2023-03-14T09:51:14;98086.31;;;13.35;82.32
59435;BME280;45241;49.768;8.636;2023-03-14T09:53:48;98069.81;;;13.21;81.98
59435;BME280;45241;49.768;8.636;2023-03-14T09:56:23;98084.91;;;13.27;82.16
59435;BME280;45241;49.768;8.636;2023-03-14T09:58:57;98086.78;;;13.27;82.56
59435;BME280;45241;49.768;8.636;2023-03-14T10:01:29;98074.22;;;13.42;82.50
59435;BME280;45241;49.768;8.636;2023-03-14T10:03:57;98071.25;;;13.39;83.12
59435;BME280;45241;49.768;8.636;2023-03-14T10:06:25;98080.69;;;13.46;82.91
59435;BME280;45241;49.768;8.636;2023-03-14T10:08:51;98076.03;;;13.32;83.69
59435;BME280;45241;49.768;8.636;2023-03-14T10:11:18;98080.13;;;13.39;83.71
59435;BME280;45241;49.768;8.636;2023-03-14T10:14:07;98091.09;;;13.28;85.02
59435;BME280;45241;49.768;8.636;2023-03-14T10:16:44;98091.69;;;13.40;85.16
59435;BME280;45241;49.768;8.636;2023-03-14T10:19:13;98078.31;;;13.55;85.08
59435;BME280;45241;49.768;8.636;2023-03-14T10:21:43;98067.25;;;13.52;85.48
59435;BME280;45241;49.768;8.636;2023-03-14T10:24:27;98065.06;;;13.43;86.12
59435;BME280;45241;49.768;8.636;2023-03-14T10:29:28;98062.91;;;13.40;86.91
59435;BME280;45241;49.768;8.636;2023-03-14T10:31:54;98083.03;;;13.28;87.21
59435;BME280;45241;49.768;8.636;2023-03-14T10:34:25;98079.59;;;13.37;86.64
59435;BME280;45241;49.768;8.636;2023-03-14T10:36:59;98067.69;;;13.33;86.27
59435;BME280;45241;49.768;8.636;2023-03-14T10:39:34;98075.03;;;13.43;87.16
59435;BME280;45241;49.768;8.636;2023-03-14T10:42:26;98071.72;;;13.26;86.96
59435;BME280;45241;49.768;8.636;2023-03-14T10:44:59;98068.97;;;13.15;88.26
59435;BME280;45241;49.768;8.636;2023-03-14T10:47:27;98060.06;;;13.10;89.19
59435;BME280;45241;49.768;8.636;2023-03-14T10:49:54;98064.50;;;13.36;87.49
59435;BME280;45241;49.768;8.636;2023-03-14T10:54:49;98058.78;;;13.23;87.91
59435;BME280;45241;49.768;8.636;2023-03-14T10:57:14;98078.19;;;13.30;88.85
59435;BME280;45241;49.768;8.636;2023-03-14T10:59:41;98074.63;;;13.19;90.06
59435;BME280;45241;49.768;8.636;2023-03-14T11:02:45;98075.69;;;13.18;90.92
59435;BME280;45241;49.768;8.636;2023-03-14T11:05:27;98076.78;;;13.17;91.72
59435;BME280;45241;49.768;8.636;2023-03-14T11:08:04;98083.19;;;13.11;93.09
59435;BME280;45241;49.768;8.636;2023-03-14T11:10:37;98078.56;;;13.01;94.76
59435;BME280;45241;49.768;8.636;2023-03-14T11:13:39;98092.00;;;12.96;96.47
59435;BME280;45241;49.768;8.636;2023-03-14T11:16:23;98095.50;;;13.02;97.76
59435;BME280;45241;49.768;8.636;2023-03-14T11:26:43;98092.69;;;12.86;100.00
59435;BME280;45241;49.768;8.636;2023-03-14T11:29:21;98109.38;;;12.88;100.00
59435;BME280;45241;49.768;8.636;2023-03-14T11:31:47;98099.59;;;12.77;100.00
59435;BME280;45241;49.768;8.636;2023-03-14T11:34:15;98105.25;;;12.81;100.00
59435;BME280;45241;49.768;8.636;2023-03-14T11:39:15;98118.41;;;12.77;100.00
59435;BME280;45241;49.768;8.636;2023-03-14T11:41:43;98124.06;;;12.76;100.00
59435;BME280;45241;49.768;8.636;2023-03-14T11:44:18;98129.94;;;12.73;100.00
59435;BME280;45241;49.768;8.636;2023-03-14T11:47:02;98131.84;;;12.72;100.00
59435;BME280;45241;49.768;8.636;2023-03-14T11:49:38;98133.56;;;12.88;100.00
59435;BME280;45241;49.768;8.636;2023-03-14T11:52:13;98127.59;;;12.81;100.00
59435;BME280;45241;49.768;8.636;2023-03-14T11:57:36;98133.34;;;12.90;100.00
59435;BME280;45241;49.768;8.636;2023-03-14T12:00:35;98144.75;;;12.75;100.00
59435;BME280;45241;49.768;8.636;2023-03-14T12:11:19;98210.72;;;12.56;97.00
59435;BME280;45241;49.768;8.636;2023-03-14T12:13:48;98256.03;;;12.47;96.54
59435;BME280;45241;49.768;8.636;2023-03-14T12:18:50;98262.34;;;12.58;91.19
59435;BME280;45241;49.768;8.636;2023-03-14T12:21:17;98265.50;;;12.55;86.41
59435;BME280;45241;49.768;8.636;2023-03-14T12:23:53;98284.94;;;12.62;82.20
59435;BME280;45241;49.768;8.636;2023-03-14T12:26:23;98298.34;;;12.57;78.75
59435;BME280;45241;49.768;8.636;2023-03-14T12:28:50;98320.53;;;12.69;78.38
59435;BME280;45241;49.768;8.636;2023-03-14T12:39:41;98347.66;;;12.46;74.25
59435;BME280;45241;49.768;8.636;2023-03-14T12:42:17;98372.19;;;12.32;74.60
59435;BME280;45241;49.768;8.636;2023-03-14T12:44:48;98386.06;;;12.08;75.30
59435;BME280;45241;49.768;8.636;2023-03-14T12:49:48;98391.59;;;12.18;75.09
59435;BME280;45241;49.768;8.636;2023-03-14T12:52:20;98414.88;;;11.95;74.04
59435;BME280;45241;49.768;8.636;2023-03-14T12:55:00;98413.47;;;12.26;74.50
59435;BME280;45241;49.768;8.636;2023-03-14T13:00:22;98436.81;;;12.43;70.75
59435;BME280;45241;49.768;8.636;2023-03-14T13:02:50;98447.75;;;12.36;71.26
59435;BME280;45241;49.768;8.636;2023-03-14T13:05:20;98447.25;;;12.39;69.87
59435;BME280;45241;49.768;8.636;2023-03-14T13:10:23;98458.31;;;12.43;69.00
59435;BME280;45241;49.768;8.636;2023-03-14T13:15:21;98470.38;;;12.23;69.72
59435;BME280;45241;49.768;8.636;2023-03-14T13:17:49;98477.88;;;12.21;69.07
59435;BME280;45241;49.768;8.636;2023-03-14T13:20:22;98480.94;;;12.13;68.19
59435;BME280;45241;49.768;8.636;2023-03-14T13:22:49;98497.81;;;11.92;67.45
59435;BME280;45241;49.768;8.636;2023-03-14T13:25:15;98518.06;;;11.99;67.80
59435;BME280;45241;49.768;8.636;2023-03-14T13:27:42;98519.22;;;12.20;67.92
59435;BME280;45241;49.768;8.636;2023-03-14T13:32:43;98539.88;;;12.03;67.32
59435;BME280;45241;49.768;8.636;2023-03-14T13:35:25;98536.97;;;12.21;67.15
59435;BME280;45241;49.768;8.636;2023-03-14T13:37:59;98543.97;;;12.22;67.32
59435;BME280;45241;49.768;8.636;2023-03-14T13:40:30;98544.66;;;12.01;66.83
59435;BME280;45241;49.768;8.636;2023-03-14T13:43:06;98565.88;;;11.86;66.24
59435;BME280;45241;49.768;8.636;2023-03-14T13:45:49;98579.91;;;11.76;68.17
59435;BME280;45241;49.768;8.636;2023-03-14T13:48:16;98591.59;;;11.82;69.44
59435;BME280;45241;49.768;8.636;2023-03-14T13:50:53;98590.50;;;11.54;70.62
59435;BME280;45241;49.768;8.636;2023-03-14T13:53:19;98628.09;;;11.42;70.60
59435;BME280;45241;49.768;8.636;2023-03-14T13:55:44;98612.31;;;11.23;71.39
59435;BME280;45241;49.768;8.636;2023-03-14T13:58:22;98650.00;;;11.51;71.60